RJEO(METAR)
10/19 14:00
RJEO 190500Z 10003KT 9999 FEW035 11/04 Q1022 RMK A3020=
戻る
トップページへ戻る
IMOC Co,.Ltd.